Time;durP1;ratioP1;P1;durP2;ratioP2;P2;SDS_P1;SDS_P2;PMS_P1;PMS_P2;Temp;Humidity;BMP_temperature;BMP_pressure;BME280_temperature;BME280_humidity;BME280_pressure;Samples;Min_cycle;Max_cycle;Signal;HPM_P1;HPM_P2
2022/06/25 00:01:13;;;;;;;6.75;2.45;;;;;;;18.34;100.00;96032.16;5054568;28;20197;-90
2022/06/25 00:03:40;;;;;;;4.70;2.50;;;;;;;18.32;100.00;96027.28;5054629;28;20308;-89
2022/06/25 00:06:08;;;;;;;10.20;2.60;;;;;;;18.38;100.00;96028.00;5054268;28;20208;-89
2022/06/25 00:08:36;;;;;;;6.32;2.65;;;;;;;18.43;100.00;96040.63;5054076;28;20205;-89
2022/06/25 00:11:03;;;;;;;3.10;2.00;;;;;;;18.04;100.00;96032.41;5053895;28;20212;-90
2022/06/25 00:13:29;;;;;;;4.50;2.13;;;;;;;17.75;100.00;96033.22;5053749;28;20232;-88
2022/06/25 00:15:55;;;;;;;5.72;2.55;;;;;;;17.97;100.00;96029.00;5054047;28;20201;-89
2022/06/25 00:18:22;;;;;;;4.10;2.55;;;;;;;17.99;100.00;96040.28;5054202;28;20567;-89
2022/06/25 00:20:49;;;;;;;9.80;2.60;;;;;;;17.85;100.00;96052.16;5052752;28;20208;-89
2022/06/25 00:23:17;;;;;;;3.78;2.70;;;;;;;18.05;100.00;96047.34;5053751;28;20228;-89
2022/06/25 00:25:43;;;;;;;6.38;2.80;;;;;;;17.81;100.00;96051.00;5053165;28;20224;-89
2022/06/25 00:28:10;;;;;;;5.13;2.97;;;;;;;17.98;100.00;96054.66;5053782;28;20205;-90
2022/06/25 00:30:38;;;;;;;5.72;2.83;;;;;;;17.84;100.00;96050.53;5053687;28;20231;-89
2022/06/25 00:33:05;;;;;;;4.28;3.00;;;;;;;17.91;100.00;96049.41;5053444;28;20643;-89
2022/06/25 00:35:31;;;;;;;4.40;2.72;;;;;;;17.96;100.00;96051.38;5053592;28;20566;-89
2022/06/25 00:37:58;;;;;;;5.78;3.10;;;;;;;17.99;100.00;96056.28;5053638;28;20589;-89
2022/06/25 00:40:25;;;;;;;4.35;3.00;;;;;;;18.28;100.00;96047.44;5052842;28;20205;-90
2022/06/25 00:42:52;;;;;;;9.02;3.65;;;;;;;18.18;100.00;96058.69;5053369;28;20229;-90
2022/06/25 00:45:18;;;;;;;5.47;2.78;;;;;;;17.89;100.00;96051.47;5053242;28;20583;-88
2022/06/25 00:47:45;;;;;;;4.75;3.10;;;;;;;18.15;100.00;96050.28;5053238;28;20209;-89
2022/06/25 00:50:11;;;;;;;6.85;3.03;;;;;;;18.13;100.00;96057.72;5052979;28;20221;-90
2022/06/25 00:52:42;;;;;;;4.20;2.78;;;;;;;17.91;100.00;96056.59;5051586;28;20233;-90
2022/06/25 00:55:11;;;;;;;3.72;3.10;;;;;;;17.97;100.00;96055.69;5051302;28;20654;-89
2022/06/25 00:57:41;;;;;;;4.45;2.90;;;;;;;17.97;100.00;96053.00;5052567;28;20713;-89
2022/06/25 01:00:10;;;;;;;3.67;2.80;;;;;;;17.83;100.00;96038.25;5053114;28;20208;-90
2022/06/25 01:02:37;;;;;;;5.22;2.75;;;;;;;18.03;100.00;96052.91;5052840;28;20698;-90
2022/06/25 01:05:06;;;;;;;6.65;2.92;;;;;;;17.85;100.00;96052.16;5052818;28;20196;-90
2022/06/25 01:07:33;;;;;;;4.60;2.63;;;;;;;17.70;100.00;96045.63;5051928;28;20322;-89
2022/06/25 01:09:59;;;;;;;6.57;2.80;;;;;;;17.70;100.00;96053.59;5050854;28;20711;-90
2022/06/25 01:12:26;;;;;;;3.40;2.47;;;;;;;17.98;100.00;96055.44;5050845;28;20229;-90
2022/06/25 01:15:02;;;;;;;3.97;2.53;;;;;;;18.31;100.00;96053.16;5049309;28;20297;-90
2022/06/25 01:17:29;;;;;;;5.20;2.58;;;;;;;18.24;100.00;96064.97;5050867;28;20673;-90
2022/06/25 01:19:56;;;;;;;5.80;2.70;;;;;;;18.12;100.00;96056.09;5051979;28;20205;-89
2022/06/25 01:22:25;;;;;;;4.45;2.25;;;;;;;18.24;100.00;96056.97;5052445;28;20713;-89
2022/06/25 01:24:51;;;;;;;6.80;2.42;;;;;;;18.21;100.00;96058.22;5052384;28;20232;-89
2022/06/25 01:27:18;;;;;;;5.15;2.10;;;;;;;18.10;100.00;96056.31;5052356;28;20215;-90
2022/06/25 01:29:45;;;;;;;2.90;2.13;;;;;;;17.80;100.00;96060.03;5051950;28;20237;-88
2022/06/25 01:32:11;;;;;;;6.07;2.38;;;;;;;17.71;100.00;96058.72;5051326;28;20217;-90
2022/06/25 01:34:38;;;;;;;4.05;2.38;;;;;;;17.91;100.00;96052.06;5051816;28;20197;-89
2022/06/25 01:37:05;;;;;;;7.88;2.53;;;;;;;17.92;100.00;96053.72;5051435;28;20212;-89
2022/06/25 01:39:33;;;;;;;3.92;2.38;;;;;;;18.10;100.00;96063.50;5049949;28;20200;-89
2022/06/25 01:42:00;;;;;;;7.38;2.40;;;;;;;17.71;100.00;96050.72;5048852;28;20650;-89
2022/06/25 01:44:28;;;;;;;5.43;2.67;;;;;;;17.96;100.00;96060.22;5052238;28;20208;-89
2022/06/25 01:46:55;;;;;;;3.42;2.38;;;;;;;17.74;100.00;96056.41;5052086;28;20205;-89
2022/06/25 01:49:22;;;;;;;8.32;2.70;;;;;;;17.69;100.00;96066.09;5052144;28;20563;-90
2022/06/25 01:51:48;;;;;;;2.95;2.22;;;;;;;17.58;100.00;96064.22;5052363;28;20204;-90
2022/06/25 01:54:15;;;;;;;5.07;2.15;;;;;;;17.90;100.00;96071.78;5051301;28;20275;-89
2022/06/25 01:56:43;;;;;;;6.72;1.77;;;;;;;17.65;100.00;96067.59;5043290;28;20194;-90
2022/06/25 01:59:09;;;;;;;6.40;2.35;;;;;;;17.76;100.00;96072.97;5052337;28;20213;-89
2022/06/25 02:01:36;;;;;;;6.82;2.50;;;;;;;17.78;100.00;96072.75;5046415;28;20555;-90
2022/06/25 02:04:03;;;;;;;4.80;2.38;;;;;;;17.87;100.00;96077.56;5051803;28;20294;-90
2022/06/25 02:06:29;;;;;;;4.45;2.20;;;;;;;17.92;100.00;96079.53;5051653;28;20705;-89
2022/06/25 02:08:56;;;;;;;6.43;2.67;;;;;;;17.46;100.00;96071.31;5050751;28;20209;-89
2022/06/25 02:11:24;;;;;;;4.47;2.30;;;;;;;17.64;100.00;96086.47;5051890;28;20561;-90
2022/06/25 02:13:52;;;;;;;8.80;2.65;;;;;;;17.94;100.00;96080.94;5048627;28;20229;-90
2022/06/25 02:16:20;;;;;;;4.13;2.53;;;;;;;17.62;100.00;96089.38;5051281;28;20685;-89
2022/06/25 02:18:46;;;;;;;3.60;2.53;;;;;;;17.55;100.00;96082.50;5051352;28;20213;-89
2022/06/25 02:21:13;;;;;;;6.80;2.75;;;;;;;17.65;100.00;96085.44;5050721;28;20660;-90
2022/06/25 02:23:40;;;;;;;10.48;2.88;;;;;;;17.71;100.00;96084.56;5049402;28;20221;-88
2022/06/25 02:26:07;;;;;;;7.38;3.10;;;;;;;17.61;100.00;96086.94;5050840;28;20216;-90
2022/06/25 02:28:33;;;;;;;5.40;2.90;;;;;;;17.65;100.00;96090.78;5052010;28;20765;-89
2022/06/25 02:31:01;;;;;;;3.35;2.35;;;;;;;17.55;100.00;96083.28;5050460;28;20228;-89
2022/06/25 02:33:28;;;;;;;6.30;3.35;;;;;;;17.26;100.00;96091.22;5051331;28;20251;-89
2022/06/25 02:35:54;;;;;;;7.25;3.33;;;;;;;17.65;100.00;96088.13;5051852;28;20208;-89
2022/06/25 02:38:21;;;;;;;6.80;2.97;;;;;;;17.58;100.00;96090.84;5051240;28;20215;-89
2022/06/25 02:40:48;;;;;;;10.27;3.85;;;;;;;17.50;100.00;96098.31;5050539;28;20212;-90
2022/06/25 02:43:14;;;;;;;7.10;3.92;;;;;;;17.54;100.00;96092.34;5050232;28;20217;-89
2022/06/25 02:45:41;;;;;;;9.95;3.85;;;;;;;17.30;100.00;96095.09;5055252;28;20205;-90
2022/06/25 02:48:10;;;;;;;6.95;3.60;;;;;;;17.60;100.00;96091.44;5049774;28;20565;-89
2022/06/25 02:50:36;;;;;;;12.68;4.47;;;;;;;17.31;100.00;96083.38;5050388;28;20237;-90
2022/06/25 02:53:03;;;;;;;8.23;4.22;;;;;;;17.32;100.00;96099.16;5054729;28;20228;-89
2022/06/25 03:00:57;;;;;;;7.40;3.88;;;;;;;17.56;100.00;96097.44;5054425;28;20200;-90
2022/06/25 03:03:26;;;;;;;8.65;4.82;;;;;;;17.72;100.00;96095.78;5053166;28;20320;-90
2022/06/25 03:05:52;;;;;;;11.38;4.80;;;;;;;17.30;100.00;96095.88;5048421;28;20205;-90
2022/06/25 03:08:19;;;;;;;10.13;4.75;;;;;;;17.37;100.00;96101.94;5054374;28;20209;-89
2022/06/25 03:10:45;;;;;;;8.88;5.45;;;;;;;17.36;100.00;96108.34;5053667;28;20221;-89
2022/06/25 03:13:12;;;;;;;8.07;4.55;;;;;;;17.13;100.00;96108.13;5054644;28;20232;-89
2022/06/25 03:15:38;;;;;;;9.25;5.13;;;;;;;17.09;100.00;96108.78;5054540;28;20228;-89
2022/06/25 03:18:05;;;;;;;9.95;5.70;;;;;;;17.30;100.00;96106.53;5053930;28;20859;-90
2022/06/25 03:20:33;;;;;;;10.15;4.85;;;;;;;17.54;100.00;96115.50;5053126;28;20676;-90
2022/06/25 03:22:59;;;;;;;12.23;5.35;;;;;;;17.41;100.00;96113.81;5051239;28;20765;-89
2022/06/25 03:25:26;;;;;;;8.80;4.57;;;;;;;17.42;100.00;96109.28;5053139;28;20220;-88
2022/06/25 03:27:52;;;;;;;10.20;4.75;;;;;;;17.55;100.00;96109.94;5051821;28;20204;-89
2022/06/25 03:30:19;;;;;;;8.90;4.68;;;;;;;17.37;100.00;96117.13;5052486;28;20225;-89
2022/06/25 03:32:45;;;;;;;9.82;5.35;;;;;;;17.35;100.00;96109.34;5052647;28;20236;-90
2022/06/25 03:35:12;;;;;;;9.25;5.28;;;;;;;17.43;100.00;96118.91;5053621;28;20205;-89
2022/06/25 03:37:39;;;;;;;8.95;5.05;;;;;;;17.46;100.00;96111.28;5052740;28;20212;-87
2022/06/25 03:40:07;;;;;;;12.15;5.45;;;;;;;17.51;100.00;96116.75;5051261;28;20197;-88
2022/06/25 03:42:33;;;;;;;9.68;4.93;;;;;;;17.49;100.00;96110.00;5052272;28;20232;-89
2022/06/25 03:45:00;;;;;;;8.27;4.93;;;;;;;17.41;100.00;96113.81;5051093;28;20209;-89
2022/06/25 03:47:26;;;;;;;7.75;4.80;;;;;;;17.39;100.00;96113.19;5053570;28;20584;-89
2022/06/25 03:49:53;;;;;;;8.23;4.80;;;;;;;17.33;100.00;96114.06;5053425;28;20205;-89
2022/06/25 03:52:20;;;;;;;11.07;5.40;;;;;;;17.27;100.00;96109.66;5053375;28;20730;-91
2022/06/25 03:54:48;;;;;;;8.50;5.32;;;;;;;17.49;100.00;96121.50;5053187;28;20205;-89
2022/06/25 03:57:14;;;;;;;10.80;5.53;;;;;;;17.21;100.00;96107.84;5048140;28;20515;-89
2022/06/25 03:59:41;;;;;;;13.55;5.88;;;;;;;17.31;100.00;96118.00;5053555;28;20205;-90
2022/06/25 04:02:07;;;;;;;10.40;5.65;;;;;;;17.36;100.00;96121.66;5053534;28;20224;-90
2022/06/25 04:04:34;;;;;;;11.00;5.32;;;;;;;17.34;100.00;96121.03;5053710;28;20654;-90
2022/06/25 04:07:00;;;;;;;9.93;5.47;;;;;;;17.28;100.00;96124.56;5053116;28;20220;-90
2022/06/25 04:09:26;;;;;;;8.35;5.10;;;;;;;17.31;100.00;96129.50;5045340;28;20220;-90
2022/06/25 04:11:54;;;;;;;11.35;5.15;;;;;;;17.41;100.00;96131.63;5052225;28;20647;-89
2022/06/25 04:14:21;;;;;;;13.80;6.00;;;;;;;17.32;100.00;96130.28;5052021;28;20221;-90
2022/06/25 04:16:47;;;;;;;13.85;5.82;;;;;;;17.49;100.00;96132.16;5051749;28;20205;-89
2022/06/25 04:19:14;;;;;;;12.40;5.50;;;;;;;17.44;100.00;96133.88;5050787;28;20208;-90
2022/06/25 04:21:41;;;;;;;9.82;5.63;;;;;;;17.48;100.00;96133.19;5052357;28;20216;-91
2022/06/25 04:24:07;;;;;;;13.15;6.03;;;;;;;17.53;100.00;96130.69;5052206;28;20251;-89
2022/06/25 04:26:34;;;;;;;11.23;6.05;;;;;;;17.63;100.00;96144.31;5051324;28;20568;-90
2022/06/25 04:29:04;;;;;;;11.38;5.68;;;;;;;17.74;100.00;96140.88;5050528;28;20236;-89
2022/06/25 04:31:31;;;;;;;11.60;5.47;;;;;;;17.73;100.00;96128.56;5050707;28;20236;-89
2022/06/25 04:33:58;;;;;;;8.95;5.47;;;;;;;17.81;100.00;96138.97;5052100;28;20597;-90
2022/06/25 04:36:24;;;;;;;11.80;5.60;;;;;;;17.73;100.00;96131.25;5049584;28;20197;-89
2022/06/25 04:38:51;;;;;;;9.68;5.22;;;;;;;17.86;100.00;96131.13;5051275;28;20205;-90
2022/06/25 04:41:18;;;;;;;9.70;4.95;;;;;;;17.84;100.00;96133.97;5052174;28;20654;-89
2022/06/25 04:43:45;;;;;;;11.32;5.57;;;;;;;17.76;100.00;96138.81;5048332;28;20624;-90
2022/06/25 04:46:13;;;;;;;10.60;5.57;;;;;;;17.93;100.00;96139.81;5050087;28;20209;-90
2022/06/25 04:48:40;;;;;;;12.48;5.68;;;;;;;17.93;100.00;96129.97;5049692;28;20209;-90
2022/06/25 04:51:06;;;;;;;12.98;6.00;;;;;;;17.82;100.00;96143.25;5049156;28;20252;-89
2022/06/25 04:53:33;;;;;;;10.30;4.88;;;;;;;17.81;100.00;96142.44;5049292;28;20213;-90
2022/06/25 04:56:00;;;;;;;11.07;5.35;;;;;;;17.94;100.00;96149.47;5047481;28;20718;-90
2022/06/25 04:58:26;;;;;;;9.30;5.05;;;;;;;17.96;100.00;96142.03;5046613;28;20208;-90
2022/06/25 05:00:52;;;;;;;9.35;5.03;;;;;;;18.33;100.00;96146.28;5045005;28;20208;-91
2022/06/25 05:03:20;;;;;;;8.18;4.55;;;;;;;18.59;100.00;96146.72;5037482;28;20244;-85
2022/06/25 05:05:47;;;;;;;10.32;5.10;;;;;;;18.58;100.00;96151.28;5037867;28;20633;-85
2022/06/25 05:08:13;;;;;;;9.00;3.95;;;;;;;18.57;100.00;96149.63;5037265;28;20197;-85
2022/06/25 05:10:39;;;;;;;13.00;5.20;;;;;;;18.75;100.00;96151.41;5041139;28;20229;-85
2022/06/25 05:13:15;;;;;;;8.40;4.78;;;;;;;18.58;100.00;96147.78;5041574;28;20615;-85
2022/06/25 05:15:43;;;;;;;9.68;4.80;;;;;;;18.02;100.00;96162.47;5042375;28;20201;-85
2022/06/25 05:18:12;;;;;;;7.72;4.20;;;;;;;18.35;100.00;96151.19;5042043;28;20700;-85
2022/06/25 05:20:40;;;;;;;7.30;4.95;;;;;;;18.61;100.00;96156.16;5038672;28;20888;-85
2022/06/25 05:23:08;;;;;;;7.35;4.18;;;;;;;18.80;100.00;96159.53;5036717;28;20231;-85
2022/06/25 05:25:34;;;;;;;14.10;4.75;;;;;;;18.55;100.00;96173.06;5037233;28;20209;-85
2022/06/25 05:28:01;;;;;;;8.70;4.13;;;;;;;18.14;100.00;96174.00;5038284;28;20670;-84
2022/06/25 05:30:27;;;;;;;6.50;3.78;;;;;;;18.06;100.00;96166.31;5037511;28;20650;-84
2022/06/25 05:32:54;;;;;;;9.18;5.03;;;;;;;18.03;100.00;96167.59;5036927;28;20236;-83
2022/06/25 05:35:21;;;;;;;8.73;4.70;;;;;;;17.99;100.00;96168.28;5037484;28;20205;-85
2022/06/25 05:37:50;;;;;;;17.60;5.65;;;;;;;18.31;100.00;96167.06;5036858;28;20217;-85
2022/06/25 05:40:16;;;;;;;17.08;5.43;;;;;;;18.26;100.00;96166.94;5036419;28;20206;-85
2022/06/25 05:42:42;;;;;;;10.40;4.70;;;;;;;17.88;100.00;96169.00;5037879;28;20236;-83
2022/06/25 05:45:09;;;;;;;6.72;3.85;;;;;;;18.11;100.00;96175.25;5037562;28;20212;-84
2022/06/25 05:47:38;;;;;;;10.13;4.80;;;;;;;18.03;100.00;96178.25;5037071;28;20212;-83
2022/06/25 05:50:06;;;;;;;12.35;4.93;;;;;;;18.21;100.00;96182.78;5037255;28;20201;-85
2022/06/25 05:52:33;;;;;;;8.55;5.25;;;;;;;18.32;100.00;96187.34;5037578;28;20612;-85
2022/06/25 05:55:01;;;;;;;8.82;5.40;;;;;;;18.16;100.00;96187.94;5037804;28;20201;-84
2022/06/25 05:57:27;;;;;;;9.35;4.50;;;;;;;17.89;100.00;96187.44;5038303;28;20201;-84
2022/06/25 05:59:54;;;;;;;10.00;4.78;;;;;;;17.66;100.00;96191.81;5038968;28;21064;-85
2022/06/25 06:02:20;;;;;;;11.40;4.63;;;;;;;17.86;100.00;96189.75;5037904;28;20221;-84
2022/06/25 06:04:47;;;;;;;8.90;5.10;;;;;;;17.95;100.00;96197.22;5037848;28;20201;-83
2022/06/25 06:07:13;;;;;;;8.45;4.90;;;;;;;17.90;100.00;96193.59;5037994;28;20201;-84
2022/06/25 06:09:40;;;;;;;8.02;4.72;;;;;;;17.85;100.00;96194.25;5038054;28;20212;-85
2022/06/25 06:12:08;;;;;;;8.18;4.47;;;;;;;18.25;100.00;96186.63;5037342;28;20221;-84
2022/06/25 06:14:34;;;;;;;7.90;4.85;;;;;;;18.37;100.00;96186.44;5037152;28;20212;-85
2022/06/25 06:17:01;;;;;;;8.52;4.90;;;;;;;18.33;100.00;96193.28;5036601;28;20213;-83
2022/06/25 06:19:27;;;;;;;6.93;4.45;;;;;;;18.92;99.93;96201.25;5038944;28;20462;-86
2022/06/25 06:21:54;;;;;;;7.80;4.47;;;;;;;18.98;99.96;96203.03;5042507;28;20204;-92
2022/06/25 06:24:21;;;;;;;6.63;3.65;;;;;;;19.17;98.79;96201.91;5044428;28;20241;-89
2022/06/25 06:26:47;;;;;;;8.27;4.25;;;;;;;18.99;100.00;96207.28;5043586;28;20224;-90
2022/06/25 06:29:17;;;;;;;8.13;4.30;;;;;;;19.21;97.31;96195.06;5045823;28;20204;-90
2022/06/25 06:31:44;;;;;;;8.48;4.60;;;;;;;18.93;96.95;96202.88;5046599;28;20225;-89
2022/06/25 06:34:10;;;;;;;7.60;3.70;;;;;;;18.85;98.00;96205.91;5044803;28;20223;-90
2022/06/25 06:36:37;;;;;;;7.32;4.03;;;;;;;19.29;99.66;96198.19;5045552;28;20208;-91
2022/06/25 06:39:03;;;;;;;8.50;4.45;;;;;;;19.57;99.02;96195.66;5042723;28;20205;-89
2022/06/25 06:41:30;;;;;;;8.10;4.25;;;;;;;19.74;94.18;96201.91;5044149;28;20200;-91
2022/06/25 06:43:56;;;;;;;7.57;4.68;;;;;;;19.65;94.73;96200.63;5047870;28;20690;-91
2022/06/25 06:46:24;;;;;;;8.43;3.80;;;;;;;19.54;94.98;96195.28;5042404;28;20630;-90
2022/06/25 06:48:50;;;;;;;7.32;3.45;;;;;;;19.36;95.95;96214.94;5042504;28;20377;-91
2022/06/25 06:51:17;;;;;;;7.50;3.95;;;;;;;19.16;97.37;96210.97;5047111;28;20224;-90
2022/06/25 06:53:43;;;;;;;6.55;4.22;;;;;;;19.00;97.79;96215.09;5051265;28;20239;-91
2022/06/25 06:56:10;;;;;;;9.80;3.70;;;;;;;19.25;97.80;96223.75;5048444;28;20205;-88
2022/06/25 06:58:37;;;;;;;5.28;3.60;;;;;;;18.91;98.45;96210.31;5046988;28;20208;-89
2022/06/25 07:01:05;;;;;;;8.70;4.45;;;;;;;18.80;98.96;96208.44;5050262;28;20205;-91
2022/06/25 07:03:33;;;;;;;9.45;4.35;;;;;;;19.08;98.39;96216.63;5049878;28;20209;-91
2022/06/25 07:05:59;;;;;;;7.57;4.75;;;;;;;19.11;98.18;96227.69;5047639;28;20197;-87
2022/06/25 07:08:26;;;;;;;6.00;4.03;;;;;;;19.08;98.45;96214.78;5047868;28;20577;-91
2022/06/25 07:10:53;;;;;;;9.48;3.53;;;;;;;19.10;97.35;96209.22;5049509;28;20209;-90
2022/06/25 07:13:19;;;;;;;5.53;3.22;;;;;;;18.84;97.77;96208.75;5047131;28;20221;-89
2022/06/25 07:15:46;;;;;;;9.27;4.10;;;;;;;19.12;95.93;96197.25;5052711;28;20231;-91
2022/06/25 07:18:12;;;;;;;17.77;3.47;;;;;;;19.18;96.23;96200.84;5054360;28;20587;-90
2022/06/25 07:20:40;;;;;;;6.70;4.03;;;;;;;19.69;94.51;96199.97;5051605;28;20205;-90
2022/06/25 07:23:07;;;;;;;5.75;3.83;;;;;;;20.00;93.06;96196.13;5054420;28;20225;-91
2022/06/25 07:25:33;;;;;;;8.60;3.33;;;;;;;19.69;90.25;96191.09;5052413;28;20216;-91
2022/06/25 07:27:59;;;;;;;7.70;3.58;;;;;;;19.82;92.25;96178.31;5054104;28;20680;-89
2022/06/25 07:30:26;;;;;;;7.63;3.90;;;;;;;19.97;93.22;96186.69;5054602;28;20212;-89
2022/06/25 07:32:52;;;;;;;5.38;3.55;;;;;;;20.49;91.90;96191.78;5053211;28;20229;-90
2022/06/25 07:35:19;;;;;;;6.65;3.83;;;;;;;20.82;95.62;96193.75;5052120;28;20197;-90
2022/06/25 07:37:47;;;;;;;4.70;3.40;;;;;;;20.74;89.04;96186.09;5049434;28;20673;-88
2022/06/25 07:40:14;;;;;;;4.28;2.45;;;;;;;20.80;87.06;96188.63;5054183;28;20467;-90
2022/06/25 07:42:40;;;;;;;3.42;2.50;;;;;;;20.45;86.16;96182.56;5051427;28;20574;-89
2022/06/25 07:45:07;;;;;;;4.28;2.75;;;;;;;20.60;83.40;96179.38;5049473;28;20201;-89
2022/06/25 07:47:38;;;;;;;5.45;3.00;;;;;;;20.90;85.22;96183.41;5052555;28;20644;-89
2022/06/25 07:52:52;;;;;;;5.32;3.20;;;;;;;20.52;86.44;96185.09;5053424;28;20235;-90
2022/06/25 07:55:19;;;;;;;4.55;3.50;;;;;;;20.72;88.26;96177.44;5054853;28;20207;-89
2022/06/25 07:57:45;;;;;;;3.58;2.70;;;;;;;20.65;86.12;96180.28;5054208;28;20579;-89
2022/06/25 08:00:13;;;;;;;4.50;3.10;;;;;;;20.80;84.04;96177.09;5054204;28;20700;-89
2022/06/25 08:02:40;;;;;;;4.13;2.90;;;;;;;21.07;84.69;96173.56;5053346;28;20221;-89
2022/06/25 08:05:06;;;;;;;2.95;2.65;;;;;;;21.63;83.26;96168.84;5049943;28;20201;-88
2022/06/25 08:07:33;;;;;;;5.38;3.10;;;;;;;21.01;83.88;96175.31;5053139;28;20205;-88
2022/06/25 08:10:01;;;;;;;3.70;2.30;;;;;;;21.61;86.51;96162.91;5052269;28;20209;-87
2022/06/25 08:12:27;;;;;;;5.20;2.70;;;;;;;21.83;82.81;96166.41;5043876;28;20232;-87
2022/06/25 08:14:54;;;;;;;2.53;2.00;;;;;;;21.93;81.36;96161.19;5033828;28;20564;-89
2022/06/25 08:17:20;;;;;;;5.70;2.10;;;;;;;22.30;81.18;96160.34;5034252;28;20667;-89
2022/06/25 08:19:47;;;;;;;3.15;1.77;;;;;;;22.07;75.55;96165.94;5039942;28;20528;-90
2022/06/25 08:22:13;;;;;;;3.38;1.92;;;;;;;21.73;75.94;96164.41;5053687;28;20197;-86
2022/06/25 08:24:40;;;;;;;2.05;1.85;;;;;;;22.17;77.88;96160.69;5053339;28;20201;-87
2022/06/25 08:27:07;;;;;;;3.17;1.63;;;;;;;22.49;75.88;96161.63;5054007;28;20193;-88
2022/06/25 08:29:34;;;;;;;2.58;1.20;;;;;;;22.70;70.57;96153.53;5053200;28;20211;-88
2022/06/25 08:32:00;;;;;;;1.50;1.40;;;;;;;22.37;74.23;96151.03;5053123;28;20217;-87
2022/06/25 08:34:27;;;;;;;1.60;1.27;;;;;;;22.43;74.23;96150.03;5053710;28;20774;-87
2022/06/25 08:36:53;;;;;;;1.35;1.20;;;;;;;22.43;71.12;96155.41;5053524;28;20205;-88
2022/06/25 08:39:20;;;;;;;1.88;1.30;;;;;;;22.68;68.13;96152.97;5052409;28;20246;-87
2022/06/25 08:41:46;;;;;;;2.38;1.33;;;;;;;22.71;70.91;96157.88;5049367;28;20579;-88
2022/06/25 08:44:14;;;;;;;3.40;1.23;;;;;;;23.35;71.32;96150.38;5037960;28;20725;-88
2022/06/25 08:46:41;;;;;;;3.95;1.55;;;;;;;22.96;72.66;96158.91;5034041;28;20213;-90
2022/06/25 08:49:10;;;;;;;4.32;1.40;;;;;;;23.22;68.77;96150.03;5043188;28;20559;-88
2022/06/25 08:51:38;;;;;;;5.32;1.50;;;;;;;23.45;67.22;96149.66;5053255;28;20745;-89
2022/06/25 08:54:08;;;;;;;2.45;1.45;;;;;;;23.52;67.94;96156.44;5053737;28;20685;-89
2022/06/25 08:56:34;;;;;;;2.85;1.35;;;;;;;23.34;68.02;96154.16;5053069;28;20228;-90
2022/06/25 08:59:01;;;;;;;1.70;1.52;;;;;;;23.12;70.92;96149.94;5053371;28;20212;-88
2022/06/25 09:01:29;;;;;;;4.40;1.60;;;;;;;23.49;69.42;96146.19;5053543;28;20209;-90
2022/06/25 09:03:55;;;;;;;2.50;1.45;;;;;;;23.64;68.12;96140.91;5051844;28;20221;-88
2022/06/25 09:06:22;;;;;;;4.53;1.33;;;;;;;24.06;69.40;96139.81;5051356;28;20255;-89
2022/06/25 09:09:07;;;;;;;1.30;1.20;;;;;;;24.17;68.67;96140.66;5053122;28;20208;-88
2022/06/25 09:11:48;;;;;;;6.40;1.30;;;;;;;24.34;67.61;96138.59;5042614;28;20224;-87
2022/06/25 09:14:20;;;;;;;4.60;1.40;;;;;;;24.33;65.07;96136.97;5052765;28;20221;-88
2022/06/25 09:16:54;;;;;;;2.67;1.48;;;;;;;24.26;66.19;96137.22;5052992;28;20205;-88
2022/06/25 09:19:29;;;;;;;1.50;1.23;;;;;;;24.18;64.06;96132.31;5049646;28;20663;-87
2022/06/25 09:21:55;;;;;;;4.38;1.20;;;;;;;23.35;65.02;96145.00;5052712;28;20700;-88
2022/06/25 09:24:21;;;;;;;1.92;1.20;;;;;;;23.09;69.49;96144.25;5045434;28;20591;-87
2022/06/25 09:26:51;;;;;;;4.13;1.42;;;;;;;24.15;68.99;96138.22;5045504;28;20213;-88
2022/06/25 09:29:18;;;;;;;2.38;1.25;;;;;;;23.42;66.19;96136.69;5049032;28;20197;-87
2022/06/25 09:31:44;;;;;;;2.88;1.10;;;;;;;24.12;63.71;96129.88;5047346;28;20216;-87
2022/06/25 09:34:12;;;;;;;2.10;1.30;;;;;;;24.39;66.07;96130.53;5045683;28;20720;-88
2022/06/25 09:36:39;;;;;;;2.15;1.55;;;;;;;24.89;62.99;96132.25;5043255;28;20216;-88
2022/06/25 09:39:05;;;;;;;3.80;1.30;;;;;;;25.09;61.69;96126.94;5043266;28;20223;-87
2022/06/25 09:41:50;;;;;;;1.30;1.10;;;;;;;25.15;62.38;96125.81;5042423;28;20223;-88
2022/06/25 09:44:18;;;;;;;3.03;1.30;;;;;;;24.56;59.95;96120.34;5041952;28;20233;-88
2022/06/25 09:46:56;;;;;;;2.05;1.00;;;;;;;24.37;60.09;96130.75;5048671;28;20205;-88
2022/06/25 09:49:24;;;;;;;2.25;1.00;;;;;;;23.90;59.74;96125.75;5046197;28;20212;-87
2022/06/25 09:51:59;;;;;;;2.55;1.10;;;;;;;24.02;61.81;96124.47;5046022;28;20581;-87
2022/06/25 09:54:25;;;;;;;1.50;1.20;;;;;;;23.86;63.11;96128.13;5043795;28;20625;-87
2022/06/25 09:56:54;;;;;;;2.60;1.10;;;;;;;24.11;64.86;96117.50;5042151;28;20198;-88
2022/06/25 09:59:22;;;;;;;2.67;1.30;;;;;;;24.71;63.36;96118.50;5042174;28;20258;-88
2022/06/25 10:01:49;;;;;;;2.08;1.08;;;;;;;24.60;63.27;96114.97;5042882;28;20201;-89
2022/06/25 10:04:16;;;;;;;3.55;1.10;;;;;;;24.98;57.72;96111.78;5046227;28;20229;-87
2022/06/25 10:06:45;;;;;;;8.48;1.30;;;;;;;24.99;61.19;96109.91;5044893;28;20235;-87
2022/06/25 10:09:13;;;;;;;1.50;0.98;;;;;;;24.39;66.39;96108.97;5040444;28;20205;-88
2022/06/25 10:11:40;;;;;;;2.13;1.15;;;;;;;23.60;63.46;96106.69;5041710;28;20220;-88
2022/06/25 10:14:07;;;;;;;2.30;1.00;;;;;;;23.61;67.50;96106.47;5043240;28;20589;-89
2022/06/25 10:16:35;;;;;;;1.10;1.00;;;;;;;23.65;61.74;96107.56;5042387;28;20250;-88
2022/06/25 10:19:03;;;;;;;1.10;0.93;;;;;;;23.52;66.26;96101.81;5043858;28;20286;-88
2022/06/25 10:21:29;;;;;;;2.28;1.20;;;;;;;23.00;63.16;96092.84;5045214;28;20207;-87
2022/06/25 10:24:01;;;;;;;2.80;1.20;;;;;;;23.12;65.65;96100.75;5045590;28;20225;-87
2022/06/25 10:26:28;;;;;;;2.72;1.30;;;;;;;23.24;68.00;96083.34;5045929;28;20689;-88
2022/06/25 10:28:54;;;;;;;108.47;22.52;;;;;;;23.86;67.09;96095.84;5045734;28;20308;-87
2022/06/25 10:31:21;;;;;;;32.97;7.32;;;;;;;23.91;64.65;96090.47;5042569;28;20208;-88
2022/06/25 10:33:56;;;;;;;2.15;1.25;;;;;;;24.38;70.32;96093.88;5044378;28;20228;-88
2022/06/25 10:36:43;;;;;;;49.35;10.63;;;;;;;24.66;64.55;96095.03;5045905;28;20208;-87
2022/06/25 10:39:37;;;;;;;2.97;1.85;;;;;;;24.38;63.13;96088.50;5046374;28;20663;-88
2022/06/25 10:45:56;;;;;;;7.70;2.97;;;;;;;24.43;61.52;96086.66;5046599;28;20246;-87
2022/06/25 10:48:25;;;;;;;12.52;3.47;;;;;;;24.24;65.29;96087.38;5044940;28;20206;-88
2022/06/25 10:50:54;;;;;;;3.63;1.40;;;;;;;24.16;62.33;96082.47;5047083;28;20232;-87
2022/06/25 10:53:27;;;;;;;4.50;1.85;;;;;;;24.53;62.39;96085.84;5042397;28;20237;-87
2022/06/25 10:56:17;;;;;;;2.95;1.10;;;;;;;25.00;59.12;96076.44;5041071;28;20290;-87
2022/06/25 10:58:48;;;;;;;1.85;1.33;;;;;;;24.44;61.54;96074.81;5040177;28;20241;-88
2022/06/25 11:01:34;;;;;;;1.52;1.10;;;;;;;24.45;64.99;96068.31;5043121;28;20455;-88
2022/06/25 11:04:12;;;;;;;4.78;1.40;;;;;;;24.14;62.27;96069.28;5043676;28;20252;-88
2022/06/25 11:06:40;;;;;;;5.78;1.95;;;;;;;24.77;62.42;96056.25;5047740;28;20276;-88
2022/06/25 11:09:18;;;;;;;1.38;1.00;;;;;;;25.46;58.36;96057.28;5047124;28;20294;-88
2022/06/25 11:11:48;;;;;;;3.65;1.23;;;;;;;25.83;58.38;96048.56;5046711;28;20212;-87
2022/06/25 11:14:22;;;;;;;1.20;0.93;;;;;;;25.92;56.02;96052.28;5045128;28;20233;-88
2022/06/25 11:16:50;;;;;;;1.58;1.40;;;;;;;26.07;57.27;96048.72;5046221;28;20515;-89
2022/06/25 11:19:17;;;;;;;3.13;1.52;;;;;;;26.47;53.92;96049.34;5045774;28;20581;-89
2022/06/25 11:21:45;;;;;;;1.65;1.30;;;;;;;26.47;54.06;96055.53;5045570;28;20662;-88
2022/06/25 11:24:18;;;;;;;2.08;1.10;;;;;;;26.60;53.45;96040.59;5050354;28;20316;-90
2022/06/25 11:29:36;;;;;;;1.05;0.95;;;;;;;25.73;52.53;96053.19;5047758;28;20208;-88
2022/06/25 11:32:03;;;;;;;2.03;1.23;;;;;;;26.08;54.63;96037.66;5043351;28;20198;-89
2022/06/25 11:34:30;;;;;;;2.97;1.20;;;;;;;26.63;56.14;96037.34;5045513;28;21229;-89
2022/06/25 11:37:03;;;;;;;1.15;0.90;;;;;;;26.68;59.28;96040.00;5051180;28;20198;-88
2022/06/25 11:39:30;;;;;;;1.60;1.13;;;;;;;27.36;53.03;96037.00;5049448;28;20209;-90
2022/06/25 11:41:58;;;;;;;3.20;1.02;;;;;;;27.52;55.71;96035.75;5048522;28;20204;-88
2022/06/25 11:44:26;;;;;;;1.10;0.90;;;;;;;27.01;48.86;96037.34;5049503;28;20236;-89